Latest Conditions
At L.F.Wade Int. Airport
Recorded at 8:55 pm
Partly Cloudy
Temp.: 
25°C/78°F
Humidity: 
72%
Wind: 
ENE 15KT
or 17mph
UV Index: 
0
Island Observations
 
Observations
Monday, October 19, 2020

Observations are in local time and taken at least once an hour, or upon the start and end of specified events such as showers and thunderstorms.

Time Sky / Weather Wind Speed/Gusts Temp. R.H. Pressure
     knots (mph)  °C (°F)  %  mb / "Hg
 20:55 Partly Cloudy  ENE 15/0 (17/0) 25(78) 72 1020 / 30.12
 19:55 Partly Cloudy  ENE 14/0 (16/0) 25(78) 71 1020 / 30.12
 18:55 Mostly Cloudy Showers ENE 13/0 (15/0) 25(78) 75 1019 / 30.10
 17:55 Mostly Cloudy Showers ENE 15/0 (17/0) 25(76) 75 1019 / 30.10
 17:39 Mostly Cloudy Showers E 16/0 (18/0) 25(78) 75 1019 / 30.09
 17:14 Mostly Cloudy Showers E 15/0 (17/0) 26(79) 70 1019 / 30.09
 16:55 Partly Cloudy  ENE 15/0 (17/0) 26(80) 69 1019 / 30.08
 15:55 Mostly Cloudy  ENE 14/0 (16/0) 27(80) 74 1019 / 30.09
 14:55 Partly Cloudy  ENE 18/0 (21/0) 27(80) 69 1019 / 30.08
 13:55 Partly Cloudy  ENE 14/0 (16/0) 27(81) 66 1019 / 30.09
 12:55 Partly Cloudy  ENE 15/0 (17/0) 27(81) 67 1020 / 30.11
 11:55 Mostly Cloudy Showers ENE 17/0 (20/0) 27(80) 69 1020 / 30.12
 10:55 Mostly Cloudy Showers E 18/0 (21/0) 26(80) 72 1020 / 30.12
 09:55 Mostly Cloudy Showers ENE 14/0 (16/0) 25(77) 77 1020 / 30.11
 08:55 Partly Cloudy  ENE 16/26 (18/30) 25(77) 76 1020 / 30.11
 07:55 Partly Cloudy  ENE 14/0 (16/0) 25(77) 78 1019 / 30.09
 06:55 Mostly Cloudy  ENE 14/0 (16/0) 25(77) 75 1018 / 30.07
 05:55 Few Clouds  ENE 14/0 (16/0) 25(77) 72 1018 / 30.06
 04:55 Few Clouds  ENE 16/0 (18/0) 25(77) 73 1018 / 30.06
 03:55 Mostly Cloudy  ENE 14/0 (16/0) 25(77) 76 1018 / 30.07
 02:55 Partly Cloudy  ENE 12/0 (14/0) 25(77) 75 1019 / 30.09
 01:55 Few Clouds  ENE 14/0 (16/0) 25(77) 72 1019 / 30.09
 00:55 Few Clouds  ENE 16/0 (18/0) 25(77) 69 1019 / 30.09
 00:22 Partly Cloudy  ENE 14/0 (16/0) 25(77) 75 1019 / 30.10
 23:55 Mostly Cloudy  ENE 17/0 (20/0) 25(77) 74 1019 / 30.09
 22:55 Few Clouds  ENE 17/0 (20/0) 25(77) 72 1019 / 30.09
 21:55 Few Clouds  ENE 16/0 (18/0) 25(77) 71 1019 / 30.09
 20:55 Partly Cloudy  ENE 15/0 (17/0) 25(78) 76 1019 / 30.08
 19:55 Few Clouds  ENE 16/0 (18/0) 26(78) 73 1019 / 30.08
 18:55 Few Clouds  ENE 17/0 (20/0) 26(78) 76 1018 / 30.06
 17:55 Partly Cloudy  ENE 15/0 (17/0) 26(79) 79 1018 / 30.05
 16:55 Partly Cloudy  ENE 16/0 (18/0) 26(80) 75 1017 / 30.04
 15:55 Mostly Cloudy  ENE 15/0 (17/0) 27(81) 74 1017 / 30.04
 14:55 Mostly Cloudy Showers ENE 14/0 (16/0) 27(81) 72 1018 / 30.05
 13:55 Partly Cloudy  NE 15/0 (17/0) 27(81) 73 1018 / 30.06
 12:55 Partly Cloudy  ENE 16/0 (18/0) 27(81) 73 1018 / 30.07
 11:55 Mostly Cloudy  NE 13/0 (15/0) 27(81) 75 1019 / 30.08
 10:55 Partly Cloudy  NE 16/0 (18/0) 27(80) 76 1018 / 30.07
 09:55 Partly Cloudy  NE 13/0 (15/0) 27(80) 76 1019 / 30.08
 08:55 Mostly Cloudy Showers NE 11/0 (13/0) 26(78) 78 1018 / 30.06
 08:30 Partly Cloudy Showers NE 12/0 (14/0) 26(78) 80 1018 / 30.05
 08:18 Partly Cloudy Showers NE 15/0 (17/0) 25(77) 82 1017 / 30.04
 07:55 Partly Cloudy Showers NE 12/0 (14/0) 25(77) 83 1017 / 30.04
 07:43 Partly Cloudy Showers ENE 10/0 (12/0) 25(77) 86 1017 / 30.04
 06:55 Partly Cloudy  NE 13/0 (15/0) 25(78) 78 1017 / 30.04
 05:55 Partly Cloudy  NE 12/0 (14/0) 25(78) 80 1017 / 30.03
 04:55 Partly Cloudy  NE 13/0 (15/0) 25(77) 79 1017 / 30.02
 04:20 Mostly Cloudy  NE 13/0 (15/0) 25(77) 82 1017 / 30.03
 03:55 Mostly Cloudy  NNE 12/0 (14/0) 25(78) 81 1017 / 30.04
 02:55 Mostly Cloudy  NE 9/0 (10/0) 25(77) 81 1018 / 30.05
 01:55 Partly Cloudy  NE 13/0 (15/0) 25(77) 78 1018 / 30.06
 00:55 Few Clouds  NNE 12/0 (14/0) 25(77) 77 1018 / 30.07
 23:55 Partly Cloudy  NE 12/0 (14/0) 25(77) 78 1019 / 30.08
 22:55 Few Clouds  NNE 12/0 (14/0) 25(77) 79 1019 / 30.08
 21:55 Few Clouds  NE 11/0 (13/0) 25(77) 77 1019 / 30.08
 20:55 Partly Cloudy  NNE 12/0 (14/0) 25(78) 78 1019 / 30.08
 19:55 Few Clouds  NNE 10/0 (12/0) 25(77) 78 1019 / 30.08
 18:55 Few Clouds  NNE 8/0 (9/0) 25(78) 77 1018 / 30.07
 17:55 Partly Cloudy  NNE 8/0 (9/0) 26(79) 73 1018 / 30.06
 16:55 Mostly Cloudy  NNE 8/0 (9/0) 27(80) 73 1018 / 30.06
 15:55 Partly Cloudy  NNE 7/0 (8/0) 27(80) 73 1017 / 30.04
 14:55 Partly Cloudy  ENE 8/0 (9/0) 27(80) 73 1017 / 30.04
 13:55 Partly Cloudy  ENE 7/0 (8/0) 27(80) 73 1018 / 30.05
 12:55 Partly Cloudy  NE 7/0 (8/0) 27(80) 77 1019 / 30.08
 11:55 Partly Cloudy  ENE 7/0 (8/0) 27(80) 77 1019 / 30.09
 10:55 Partly Cloudy  ENE 7/0 (8/0) 26(80) 76 1019 / 30.09
 09:55 Partly Cloudy  ENE 7/0 (8/0) 26(79) 77 1019 / 30.09
 08:55 Partly Cloudy  E 4/0 (5/0) 24(76) 84 1019 / 30.09
 07:55 Partly Cloudy  E 2/0 (2/0) 23(74) 96 1019 / 30.08
 06:55 Partly Cloudy  VRB 1/0 (1/0) 23(74) 96 1018 / 30.07
 05:55 Partly Cloudy  NE 2/0 (2/0) 23(74) 95 1018 / 30.07
 04:55 Few Clouds  VRB 1/0 (1/0) 23(74) 91 1018 / 30.06
 04:25 Mostly Cloudy Showers NE 2/0 (2/0) 24(75) 91 1018 / 30.06
 04:18 Mostly Cloudy Showers ENE 2/0 (2/0) 24(74) 92 1018 / 30.06
 03:55 Few Clouds  E 2/0 (2/0) 23(74) 91 1018 / 30.06
 02:55 Few Clouds  E 3/0 (3/0) 24(76) 88 1018 / 30.07
 01:55 Partly Cloudy  E 3/0 (3/0) 24(76) 88 1018 / 30.07
 00:55 Few Clouds  E 3/0 (3/0) 24(76) 89 1019 / 30.08
 23:55 Partly Cloudy  E 3/0 (3/0) 24(76) 89 1019 / 30.09
 22:55 Partly Cloudy  E 5/0 (6/0) 24(76) 86 1019 / 30.10
 21:55 Partly Cloudy  ENE 4/0 (5/0) 25(77) 87 1019 / 30.09
 20:55 Partly Cloudy  ENE 8/0 (9/0) 25(77) 85 1019 / 30.08
 19:55 Partly Cloudy  ENE 7/0 (8/0) 25(76) 87 1019 / 30.08
 18:55 Few Clouds  ENE 7/0 (8/0) 25(77) 85 1018 / 30.06
 17:55 Few Clouds  ENE 7/0 (8/0) 25(77) 83 1018 / 30.07
 16:55 Few Clouds  ENE 8/0 (9/0) 26(78) 81 1018 / 30.07
 15:55 Few Clouds  ENE 8/0 (9/0) 27(80) 76 1019 / 30.08
 14:55 Few Clouds Showers NNE 8/0 (9/0) 27(80) 75 1019 / 30.09
 13:55 Few Clouds  NE 9/0 (10/0) 27(80) 75 1020 / 30.11
 12:55 Few Clouds  NNE 9/0 (10/0) 27(80) 75 1020 / 30.13
 11:55 Partly Cloudy  NNE 9/0 (10/0) 27(81) 73 1021 / 30.14
 11:32 Mostly Cloudy  NNE 9/0 (10/0) 26(79) 76 1021 / 30.15
 11:16 Mostly Cloudy  NNE 9/0 (10/0) 26(79) 76 1021 / 30.15
 10:55 Mostly Cloudy  NNE 8/0 (9/0) 26(79) 76 1021 / 30.14
 09:55 Few Clouds  NE 7/0 (8/0) 26(79) 75 1021 / 30.14
 08:55 Mostly Cloudy  ENE 8/0 (9/0) 24(76) 85 1020 / 30.12
 07:55 Mostly Cloudy Showers NE 8/0 (9/0) 24(76) 86 1020 / 30.11
 07:02 Partly Cloudy Showers NE 6/0 (7/0) 24(76) 83 1019 / 30.10
 06:55 Mostly Cloudy Showers ENE 6/0 (7/0) 24(76) 85 1019 / 30.09
 06:01 Mostly Cloudy Showers ENE 4/0 (5/0) 24(76) 86 1019 / 30.09
Island AWOS